createdAt,value
2023-01-11T00:02:10.662Z,15.09
2023-01-11T00:04:37.655Z,15.10
2023-01-11T00:07:05.910Z,15.08
2023-01-11T00:09:34.635Z,15.04
2023-01-11T00:12:02.626Z,15.05
2023-01-11T00:14:30.890Z,15.07
2023-01-11T00:17:01.641Z,15.04
2023-01-11T00:19:28.678Z,15.06
2023-01-11T00:21:59.381Z,15.05
2023-01-11T00:24:31.593Z,15.05
2023-01-11T00:26:58.628Z,15.08
2023-01-11T00:29:28.726Z,15.02
2023-01-11T00:31:57.973Z,15.03
2023-01-11T00:34:26.793Z,15.00
2023-01-11T00:36:54.505Z,14.99
2023-01-11T00:39:22.754Z,15.01
2023-01-11T00:42:08.369Z,15.01
2023-01-11T00:44:55.930Z,15.05
2023-01-11T00:47:41.941Z,15.08
2023-01-11T00:50:11.042Z,15.05
2023-01-11T00:52:37.890Z,15.02
2023-01-11T00:55:06.686Z,15.01
2023-01-11T00:57:38.674Z,15.03
2023-01-11T01:00:09.135Z,14.96
2023-01-11T01:02:40.725Z,14.94
2023-01-11T01:05:14.079Z,14.91
2023-01-11T01:07:44.408Z,14.93
2023-01-11T01:10:14.923Z,14.94
2023-01-11T01:13:03.252Z,14.91
2023-01-11T01:15:34.028Z,14.90
2023-01-11T01:18:02.567Z,14.84
2023-01-11T01:20:29.976Z,14.70
2023-01-11T01:23:01.359Z,14.57
2023-01-11T01:25:30.369Z,14.66
2023-01-11T01:28:00.438Z,14.59
2023-01-11T01:30:36.798Z,14.66
2023-01-11T01:33:04.615Z,14.69
2023-01-11T01:35:33.089Z,14.67
2023-01-11T01:38:03.526Z,14.63
2023-01-11T01:40:50.680Z,14.65
2023-01-11T01:43:20.318Z,14.63
2023-01-11T01:45:52.024Z,14.63
2023-01-11T01:48:25.089Z,14.55
2023-01-11T01:50:57.902Z,14.58
2023-01-11T01:53:50.454Z,14.57
2023-01-11T01:56:31.772Z,14.60
2023-01-11T02:01:49.715Z,14.52
2023-01-11T02:04:28.460Z,14.52
2023-01-11T02:06:59.676Z,14.48
2023-01-11T02:09:27.527Z,14.38
2023-01-11T02:11:56.537Z,14.43
2023-01-11T02:14:26.194Z,14.29
2023-01-11T02:16:53.766Z,14.41
2023-01-11T02:19:28.480Z,14.39
2023-01-11T02:21:59.421Z,14.31
2023-01-11T02:24:43.253Z,14.22
2023-01-11T02:27:10.526Z,14.25
2023-01-11T02:29:44.659Z,14.23
2023-01-11T02:32:30.753Z,14.24
2023-01-11T02:35:08.928Z,14.18
2023-01-11T02:37:55.549Z,14.24
2023-01-11T02:40:23.525Z,14.12
2023-01-11T02:43:09.816Z,14.09
2023-01-11T02:45:40.590Z,14.05
2023-01-11T02:48:07.701Z,14.04
2023-01-11T02:50:38.547Z,14.03
2023-01-11T02:53:12.283Z,14.03
2023-01-11T02:55:43.344Z,13.94
2023-01-11T02:58:13.000Z,13.87
2023-01-11T03:00:42.048Z,13.86
2023-01-11T03:03:18.778Z,13.96
2023-01-11T03:05:46.387Z,13.90
2023-01-11T03:08:35.140Z,13.95
2023-01-11T03:11:05.396Z,14.00
2023-01-11T03:13:54.239Z,14.00
2023-01-11T03:16:29.150Z,13.99
2023-01-11T03:19:26.723Z,13.99
2023-01-11T03:22:05.953Z,13.92
2023-01-11T03:24:51.679Z,13.96
2023-01-11T03:27:35.959Z,13.99
2023-01-11T03:30:27.650Z,13.92
2023-01-11T03:33:02.351Z,13.99
2023-01-11T03:35:43.769Z,13.98
2023-01-11T03:38:22.196Z,13.99
2023-01-11T03:41:12.376Z,13.97
2023-01-11T03:43:44.620Z,14.03
2023-01-11T03:46:34.815Z,14.07
2023-01-11T03:49:11.423Z,14.12
2023-01-11T03:51:43.011Z,14.03
2023-01-11T03:54:12.296Z,14.17
2023-01-11T03:56:59.769Z,14.24
2023-01-11T04:02:35.564Z,14.31
2023-01-11T04:05:04.612Z,14.37
2023-01-11T04:07:31.603Z,14.43
2023-01-11T04:09:59.867Z,14.39
2023-01-11T04:12:28.630Z,14.41
2023-01-11T04:14:56.492Z,14.44
2023-01-11T04:17:26.750Z,14.44
2023-01-11T04:19:56.647Z,14.44
2023-01-11T04:22:24.907Z,14.13
2023-01-11T04:24:53.026Z,14.33
2023-01-11T04:27:25.031Z,14.38
2023-01-11T04:29:53.054Z,14.56
2023-01-11T04:32:22.890Z,14.43
2023-01-11T04:34:52.016Z,14.60
2023-01-11T04:37:19.697Z,14.66
2023-01-11T04:39:47.937Z,14.68
2023-01-11T04:42:25.501Z,14.70
2023-01-11T04:44:53.368Z,14.74
2023-01-11T04:47:22.868Z,14.78
2023-01-11T04:49:52.425Z,14.87
2023-01-11T04:52:21.109Z,14.88
2023-01-11T04:54:50.217Z,14.92
2023-01-11T04:57:18.819Z,14.95
2023-01-11T04:59:50.459Z,14.94
2023-01-11T05:02:20.703Z,14.93
2023-01-11T05:04:49.022Z,14.69
2023-01-11T05:07:17.157Z,14.78
2023-01-11T05:09:46.118Z,14.49
2023-01-11T05:12:15.264Z,14.78
2023-01-11T05:14:43.608Z,14.84
2023-01-11T05:17:20.916Z,14.91
2023-01-11T05:19:49.004Z,14.96
2023-01-11T05:22:17.836Z,14.99
2023-01-11T05:24:46.305Z,14.97
2023-01-11T05:27:16.427Z,15.09
2023-01-11T05:29:50.221Z,15.08
2023-01-11T05:32:21.339Z,15.00
2023-01-11T05:34:51.906Z,14.87
2023-01-11T05:37:22.123Z,14.97
2023-01-11T05:39:53.195Z,14.94
2023-01-11T05:42:24.567Z,15.05
2023-01-11T05:45:12.704Z,14.98
2023-01-11T05:47:42.568Z,15.00
2023-01-11T05:50:12.676Z,14.88
2023-01-11T05:52:40.747Z,14.93
2023-01-11T05:55:12.665Z,14.92
2023-01-11T05:57:44.647Z,14.97
2023-01-11T06:00:15.107Z,14.89
2023-01-11T06:02:50.093Z,14.67
2023-01-11T06:05:20.389Z,15.02
2023-01-11T06:07:53.088Z,15.11
2023-01-11T06:10:23.515Z,15.01
2023-01-11T06:13:15.270Z,14.92
2023-01-11T06:15:46.173Z,15.04
2023-01-11T06:18:20.720Z,15.18
2023-01-11T06:20:57.241Z,14.80
2023-01-11T06:23:29.254Z,14.96
2023-01-11T06:26:05.645Z,14.97
2023-01-11T06:28:34.457Z,15.13
2023-01-11T06:31:08.106Z,15.05
2023-01-11T06:33:37.529Z,14.58
2023-01-11T06:36:09.677Z,14.56
2023-01-11T06:38:40.039Z,14.58
2023-01-11T06:41:11.859Z,14.55
2023-01-11T06:43:44.967Z,14.44
2023-01-11T06:46:14.435Z,14.29
2023-01-11T06:48:44.394Z,13.92
2023-01-11T06:51:20.255Z,14.05
2023-01-11T06:53:54.336Z,14.00
2023-01-11T06:56:27.475Z,13.92
2023-01-11T06:58:56.519Z,13.95
2023-01-11T07:01:32.625Z,13.89
2023-01-11T07:04:06.567Z,13.94
2023-01-11T07:07:04.943Z,13.93
2023-01-11T07:09:38.147Z,13.90
2023-01-11T07:12:10.816Z,13.91
2023-01-11T07:14:42.272Z,13.90
2023-01-11T07:17:13.864Z,14.02
2023-01-11T07:19:50.442Z,14.03
2023-01-11T07:22:24.873Z,13.98
2023-01-11T07:25:05.951Z,13.96
2023-01-11T07:27:40.209Z,14.12
2023-01-11T07:30:32.211Z,14.08
2023-01-11T07:33:11.826Z,14.17
2023-01-11T07:35:40.093Z,14.20
2023-01-11T07:38:11.467Z,14.21
2023-01-11T07:40:42.971Z,14.29
2023-01-11T07:43:15.127Z,14.19
2023-01-11T07:46:01.496Z,14.20
2023-01-11T07:48:35.805Z,14.18
2023-01-11T07:51:16.743Z,14.31
2023-01-11T07:53:45.069Z,14.32
2023-01-11T07:56:23.686Z,14.43
2023-01-11T07:59:04.819Z,14.49
2023-01-11T08:01:47.077Z,14.51
2023-01-11T08:04:24.254Z,14.52
2023-01-11T08:06:51.574Z,14.51
2023-01-11T08:09:29.550Z,14.63
2023-01-11T08:12:23.871Z,14.58
2023-01-11T08:15:01.942Z,14.62
2023-01-11T08:17:36.388Z,14.49
2023-01-11T08:20:18.729Z,14.58
2023-01-11T08:22:54.406Z,14.80
2023-01-11T08:25:40.714Z,14.90
2023-01-11T08:28:20.412Z,15.02
2023-01-11T08:30:59.997Z,15.08
2023-01-11T08:33:32.122Z,15.15
2023-01-11T08:36:07.151Z,15.23
2023-01-11T08:38:40.515Z,15.36
2023-01-11T08:41:17.294Z,15.41
2023-01-11T08:43:50.203Z,15.44
2023-01-11T08:46:36.518Z,15.48
2023-01-11T08:49:16.572Z,15.29
2023-01-11T08:51:54.427Z,15.48
2023-01-11T08:54:39.499Z,15.59
2023-01-11T08:57:10.576Z,15.56
2023-01-11T08:59:51.438Z,15.68
2023-01-11T09:02:24.495Z,15.57
2023-01-11T09:04:54.928Z,15.58
2023-01-11T09:07:28.817Z,15.62
2023-01-11T09:09:57.253Z,15.77
2023-01-11T09:12:33.004Z,15.79
2023-01-11T09:15:06.322Z,15.91
2023-01-11T09:17:42.629Z,15.98
2023-01-11T09:20:22.840Z,15.98
2023-01-11T09:22:53.529Z,16.06
2023-01-11T09:25:22.053Z,16.09
2023-01-11T09:28:06.579Z,16.19
2023-01-11T09:33:34.926Z,16.25
2023-01-11T09:36:03.258Z,16.16
2023-01-11T09:38:37.154Z,16.37
2023-01-11T09:41:23.404Z,16.44
2023-01-11T09:44:02.579Z,16.45
2023-01-11T09:46:31.922Z,16.49
2023-01-11T09:48:59.978Z,16.67
2023-01-11T09:51:35.299Z,16.60
2023-01-11T09:57:43.284Z,16.78
2023-01-11T10:00:20.242Z,16.94
2023-01-11T10:03:16.383Z,16.93
2023-01-11T10:06:05.424Z,17.18
2023-01-11T10:18:29.106Z,17.62
2023-01-11T10:18:40.173Z,17.58
2023-01-11T10:21:17.145Z,18.03
2023-01-11T10:23:54.142Z,18.18
2023-01-11T10:26:28.894Z,18.42
2023-01-11T10:29:19.325Z,18.02
2023-01-11T10:32:04.836Z,18.11
2023-01-11T10:35:03.610Z,18.19
2023-01-11T10:37:56.406Z,18.17
2023-01-11T10:41:03.119Z,18.06
2023-01-11T10:43:51.019Z,18.05
2023-01-11T10:46:30.802Z,18.28
2023-01-11T10:49:25.752Z,18.50
2023-01-11T10:51:56.672Z,18.80
2023-01-11T10:55:07.491Z,18.80
2023-01-11T10:58:06.371Z,19.16
2023-01-11T11:00:52.911Z,19.49
2023-01-11T11:03:46.290Z,19.30
2023-01-11T11:06:37.417Z,19.69
2023-01-11T11:09:15.144Z,19.69
2023-01-11T11:11:58.931Z,19.73
2023-01-11T11:14:50.931Z,19.86
2023-01-11T11:17:29.485Z,19.80
2023-01-11T11:20:02.421Z,20.27
2023-01-11T11:22:33.270Z,20.39
2023-01-11T11:25:21.676Z,20.62
2023-01-11T11:27:56.708Z,20.39
2023-01-11T11:30:39.441Z,20.52
2023-01-11T11:33:24.592Z,20.55
2023-01-11T11:36:01.482Z,20.11
2023-01-11T11:38:43.366Z,20.43
2023-01-11T11:41:15.700Z,20.07
2023-01-11T11:43:48.269Z,20.31
2023-01-11T11:46:20.761Z,20.34
2023-01-11T11:49:24.195Z,20.78
2023-01-11T11:52:08.487Z,20.80
2023-01-11T11:55:01.597Z,20.77
2023-01-11T11:57:39.604Z,21.35
2023-01-11T12:00:26.572Z,21.68
2023-01-11T12:03:19.609Z,21.71
2023-01-11T12:05:58.537Z,21.83
2023-01-11T12:08:31.026Z,21.94
2023-01-11T12:11:02.481Z,21.81
2023-01-11T12:13:59.479Z,21.76
2023-01-11T12:16:35.216Z,21.77
2023-01-11T12:19:08.934Z,21.81
2023-01-11T12:21:46.753Z,21.41
2023-01-11T12:24:30.035Z,21.45
2023-01-11T12:27:20.216Z,21.62
2023-01-11T12:30:15.974Z,20.94
2023-01-11T12:33:02.990Z,21.29
2023-01-11T12:35:33.194Z,21.31
2023-01-11T12:38:08.833Z,21.33
2023-01-11T12:41:10.412Z,21.44
2023-01-11T12:44:01.469Z,21.28
2023-01-11T12:46:38.077Z,21.04
2023-01-11T12:49:31.149Z,21.24
2023-01-11T12:52:30.904Z,21.11
2023-01-11T12:58:20.502Z,21.23
2023-01-11T13:01:09.406Z,21.05
2023-01-11T13:03:53.732Z,20.75
2023-01-11T13:06:53.833Z,20.59
2023-01-11T13:09:47.485Z,20.91
2023-01-11T13:12:51.032Z,20.64
2023-01-11T13:15:36.035Z,20.46
2023-01-11T13:18:05.893Z,20.49
2023-01-11T13:21:01.122Z,20.02
2023-01-11T13:23:48.921Z,19.97
2023-01-11T13:26:22.120Z,20.25
2023-01-11T13:28:53.454Z,20.33
2023-01-11T13:31:22.645Z,20.36
2023-01-11T13:33:55.617Z,20.28
2023-01-11T13:36:27.699Z,20.07
2023-01-11T13:39:01.978Z,19.94
2023-01-11T13:41:51.684Z,20.22
2023-01-11T13:44:25.605Z,20.32
2023-01-11T13:46:55.581Z,20.20
2023-01-11T13:49:25.930Z,20.11
2023-01-11T13:52:13.770Z,20.16
2023-01-11T13:55:09.013Z,20.35
2023-01-11T13:58:04.937Z,20.39
2023-01-11T14:00:46.342Z,20.50
2023-01-11T14:03:29.790Z,20.40
2023-01-11T14:05:59.930Z,20.52
2023-01-11T14:08:48.495Z,20.58
2023-01-11T14:11:32.456Z,20.55
2023-01-11T14:14:15.284Z,20.70
2023-01-11T14:16:53.097Z,20.75
2023-01-11T14:19:43.506Z,20.72
2023-01-11T14:22:29.104Z,20.25
2023-01-11T14:25:02.812Z,20.31
2023-01-11T14:27:50.326Z,20.45
2023-01-11T14:30:20.163Z,20.55
2023-01-11T14:33:14.999Z,20.59
2023-01-11T14:35:45.612Z,20.69
2023-01-11T14:38:27.927Z,20.61
2023-01-11T14:41:04.283Z,20.66
2023-01-11T14:43:38.216Z,20.63
2023-01-11T14:46:30.640Z,20.59
2023-01-11T14:49:11.431Z,20.45
2023-01-11T14:51:47.912Z,20.50
2023-01-11T14:54:45.724Z,20.56
2023-01-11T14:57:33.248Z,20.64
2023-01-11T15:00:02.213Z,20.66
2023-01-11T15:02:34.050Z,20.63
2023-01-11T15:05:05.925Z,20.65
2023-01-11T15:07:36.869Z,20.56
2023-01-11T15:10:24.435Z,20.59
2023-01-11T15:12:58.397Z,20.66
2023-01-11T15:15:52.383Z,20.66
2023-01-11T15:18:22.151Z,20.67
2023-01-11T15:21:00.639Z,20.66
2023-01-11T15:23:29.632Z,20.57
2023-01-11T15:26:01.409Z,20.58
2023-01-11T15:28:55.054Z,20.60
2023-01-11T15:31:34.380Z,20.62
2023-01-11T15:34:06.116Z,20.59
2023-01-11T15:36:56.751Z,20.58
2023-01-11T15:42:59.120Z,20.55
2023-01-11T15:45:36.444Z,20.52
2023-01-11T15:48:41.096Z,20.51
2023-01-11T15:51:39.801Z,20.49
2023-01-11T15:54:32.376Z,20.46
2023-01-11T15:57:23.031Z,20.44
2023-01-11T16:00:32.681Z,20.34
2023-01-11T16:03:35.035Z,20.28
2023-01-11T16:06:30.917Z,20.22
2023-01-11T16:09:14.168Z,20.17
2023-01-11T16:15:05.079Z,19.96
2023-01-11T16:17:55.145Z,19.93
2023-01-11T16:23:21.134Z,19.84
2023-01-11T16:25:56.062Z,19.81
2023-01-11T16:28:35.505Z,19.80
2023-01-11T16:31:05.169Z,19.77
2023-01-11T16:33:39.910Z,19.69
2023-01-11T16:36:17.543Z,19.53
2023-01-11T16:39:09.048Z,19.56
2023-01-11T16:41:57.039Z,19.55
2023-01-11T16:44:44.939Z,19.49
2023-01-11T16:47:18.201Z,19.43
2023-01-11T16:49:50.235Z,19.40
2023-01-11T16:52:37.499Z,19.21
2023-01-11T16:55:25.724Z,19.33
2023-01-11T16:58:07.961Z,19.30
2023-01-11T17:00:40.958Z,19.28
2023-01-11T17:03:44.080Z,19.20
2023-01-11T17:06:23.913Z,19.22
2023-01-11T17:09:16.268Z,19.07
2023-01-11T17:11:57.336Z,19.10
2023-01-11T17:14:30.829Z,19.10
2023-01-11T17:17:04.293Z,19.03
2023-01-11T17:19:54.314Z,19.02
2023-01-11T17:22:52.060Z,19.02
2023-01-11T17:25:24.898Z,18.97
2023-01-11T17:28:19.751Z,18.97
2023-01-11T17:30:56.933Z,18.94
2023-01-11T17:33:40.820Z,18.92
2023-01-11T17:36:11.681Z,18.89
2023-01-11T17:38:46.556Z,18.84
2023-01-11T17:41:43.433Z,18.85
2023-01-11T17:45:01.191Z,18.78
2023-01-11T17:50:29.917Z,18.68
2023-01-11T17:53:16.793Z,18.64
2023-01-11T17:55:59.303Z,18.61
2023-01-11T17:58:39.438Z,18.60
2023-01-11T18:01:14.219Z,18.60
2023-01-11T18:04:03.260Z,18.48
2023-01-11T18:06:30.912Z,18.48
2023-01-11T18:09:04.968Z,18.44
2023-01-11T18:11:38.212Z,18.46
2023-01-11T18:14:26.356Z,18.43
2023-01-11T18:17:09.395Z,18.40
2023-01-11T18:19:53.940Z,18.38
2023-01-11T18:22:24.365Z,18.37
2023-01-11T18:24:59.238Z,18.32
2023-01-11T18:27:28.397Z,18.27
2023-01-11T18:30:02.977Z,18.27
2023-01-11T18:32:37.275Z,18.22
2023-01-11T18:35:14.055Z,18.22
2023-01-11T18:37:41.121Z,18.20
2023-01-11T18:40:17.700Z,18.12
2023-01-11T18:42:54.790Z,18.16
2023-01-11T18:45:42.233Z,18.19
2023-01-11T18:48:20.809Z,18.19
2023-01-11T18:50:56.686Z,18.10
2023-01-11T18:53:24.939Z,18.10
2023-01-11T18:55:59.296Z,18.07
2023-01-11T18:58:27.150Z,18.03
2023-01-11T19:00:54.910Z,17.98
2023-01-11T19:03:24.709Z,17.95
2023-01-11T19:05:55.683Z,17.96
2023-01-11T19:08:28.061Z,17.91
2023-01-11T19:11:00.175Z,17.89
2023-01-11T19:13:28.247Z,17.90
2023-01-11T19:15:56.984Z,17.88
2023-01-11T19:18:24.503Z,17.83
2023-01-11T19:20:52.538Z,17.83
2023-01-11T19:25:59.252Z,17.78
2023-01-11T19:28:28.759Z,17.77
2023-01-11T19:30:59.034Z,17.77
2023-01-11T19:33:35.440Z,17.78
2023-01-11T19:36:26.949Z,17.66
2023-01-11T19:38:57.953Z,17.59
2023-01-11T19:41:50.109Z,17.51
2023-01-11T19:44:23.464Z,17.53
2023-01-11T19:47:09.569Z,17.49
2023-01-11T19:49:45.101Z,17.51
2023-01-11T19:52:26.347Z,17.45
2023-01-11T19:55:29.463Z,17.37
2023-01-11T19:57:59.289Z,17.39
2023-01-11T20:00:29.319Z,17.34
2023-01-11T20:03:05.654Z,17.41
2023-01-11T20:05:36.949Z,17.37
2023-01-11T20:08:14.657Z,17.37
2023-01-11T20:10:55.149Z,17.32
2023-01-11T20:13:22.920Z,17.33
2023-01-11T20:15:53.142Z,17.26
2023-01-11T20:18:24.181Z,17.29
2023-01-11T20:20:56.319Z,17.25
2023-01-11T20:23:26.361Z,17.21
2023-01-11T20:26:24.457Z,17.17
2023-01-11T20:28:58.847Z,17.17
2023-01-11T20:31:32.025Z,17.10
2023-01-11T20:34:11.695Z,17.11
2023-01-11T20:36:51.031Z,17.04
2023-01-11T20:39:23.148Z,16.96
2023-01-11T20:41:51.675Z,16.88
2023-01-11T20:44:32.248Z,16.92
2023-01-11T20:47:02.471Z,16.93
2023-01-11T20:49:31.253Z,16.91
2023-01-11T20:52:00.044Z,16.83
2023-01-11T20:54:30.407Z,16.86
2023-01-11T20:57:11.437Z,16.88
2023-01-11T20:59:41.830Z,16.88
2023-01-11T21:02:11.625Z,16.87
2023-01-11T21:04:43.333Z,16.87
2023-01-11T21:07:16.733Z,16.89
2023-01-11T21:09:47.023Z,16.90
2023-01-11T21:12:14.834Z,16.90
2023-01-11T21:14:42.259Z,16.85
2023-01-11T21:17:16.549Z,16.82
2023-01-11T21:19:44.422Z,16.80
2023-01-11T21:22:11.579Z,16.78
2023-01-11T21:24:45.243Z,16.71
2023-01-11T21:27:21.377Z,16.74
2023-01-11T21:29:58.375Z,16.71
2023-01-11T21:32:25.818Z,16.67
2023-01-11T21:34:54.394Z,16.62
2023-01-11T21:37:24.815Z,16.63
2023-01-11T21:39:52.397Z,16.62
2023-01-11T21:42:22.034Z,16.63
2023-01-11T21:44:54.619Z,16.59
2023-01-11T21:47:26.197Z,16.56
2023-01-11T21:49:56.468Z,16.58
2023-01-11T21:52:26.943Z,16.55
2023-01-11T21:54:54.292Z,16.56
2023-01-11T21:57:22.363Z,16.50
2023-01-11T21:59:49.659Z,16.49
2023-01-11T22:02:17.581Z,16.48
2023-01-11T22:04:46.682Z,16.48
2023-01-11T22:07:15.464Z,16.42
2023-01-11T22:10:03.507Z,16.39
2023-01-11T22:12:37.139Z,16.39
2023-01-11T22:15:05.705Z,16.34
2023-01-11T22:17:35.806Z,16.26
2023-01-11T22:20:05.921Z,16.19
2023-01-11T22:22:34.263Z,16.23
2023-01-11T22:25:02.066Z,16.14
2023-01-11T22:27:42.285Z,16.14
2023-01-11T22:30:11.537Z,16.18
2023-01-11T22:32:53.335Z,16.13
2023-01-11T22:35:29.089Z,16.09
2023-01-11T22:37:56.184Z,16.05
2023-01-11T22:40:24.186Z,16.09
2023-01-11T22:42:52.040Z,16.06
2023-01-11T22:45:20.561Z,16.04
2023-01-11T22:47:51.101Z,15.96
2023-01-11T22:50:23.173Z,16.00
2023-01-11T22:52:52.065Z,15.95
2023-01-11T22:55:20.449Z,15.95
2023-01-11T22:57:48.638Z,15.96
2023-01-11T23:00:16.268Z,15.93
2023-01-11T23:02:46.218Z,15.96
2023-01-11T23:05:13.522Z,15.97
2023-01-11T23:07:43.785Z,15.96
2023-01-11T23:10:12.831Z,15.96
2023-01-11T23:13:03.179Z,16.01
2023-01-11T23:15:32.877Z,15.96
2023-01-11T23:18:00.348Z,15.90
2023-01-11T23:20:30.522Z,15.90
2023-01-11T23:23:03.663Z,15.90
2023-01-11T23:25:30.944Z,15.85
2023-01-11T23:28:02.497Z,15.82
2023-01-11T23:30:32.068Z,15.80
2023-01-11T23:32:59.483Z,15.71
2023-01-11T23:35:26.759Z,15.66
2023-01-11T23:37:56.997Z,15.66
2023-01-11T23:40:25.712Z,15.61
2023-01-11T23:42:54.149Z,15.59
2023-01-11T23:45:21.804Z,15.56
2023-01-11T23:47:50.827Z,15.58
2023-01-11T23:50:18.089Z,15.56
2023-01-11T23:52:47.668Z,15.56
2023-01-11T23:55:17.911Z,15.50
2023-01-11T23:58:05.301Z,15.48
